createdAt,value
2023-03-01T00:01:43.065Z,9.45
2023-03-01T00:04:10.917Z,9.30
2023-03-01T00:06:39.133Z,9.40
2023-03-01T00:09:07.182Z,10.40
2023-03-01T00:11:35.592Z,10.73
2023-03-01T00:14:06.144Z,10.85
2023-03-01T00:16:37.318Z,10.48
2023-03-01T00:19:05.573Z,9.65
2023-03-01T00:21:33.573Z,9.50
2023-03-01T00:24:01.403Z,8.73
2023-03-01T00:26:29.876Z,9.10
2023-03-01T00:29:00.219Z,11.48
2023-03-01T00:31:32.013Z,12.02
2023-03-01T00:34:03.376Z,11.90
2023-03-01T00:36:36.857Z,11.88
2023-03-01T00:39:06.792Z,11.55
2023-03-01T00:41:35.788Z,11.07
2023-03-01T00:44:04.218Z,11.95
2023-03-01T00:46:32.351Z,11.80
2023-03-01T00:49:03.428Z,11.70
2023-03-01T00:51:31.942Z,14.10
2023-03-01T00:54:02.348Z,12.48
2023-03-01T00:56:31.251Z,12.73
2023-03-01T00:58:59.618Z,23.77
2023-03-01T01:01:31.032Z,14.82
2023-03-01T01:04:19.093Z,15.35
2023-03-01T01:06:48.009Z,14.05
2023-03-01T01:09:18.562Z,15.80
2023-03-01T01:11:51.701Z,15.13
2023-03-01T01:14:20.607Z,15.13
2023-03-01T01:16:49.735Z,12.35
2023-03-01T01:19:17.960Z,11.07
2023-03-01T01:21:46.133Z,12.75
2023-03-01T01:24:13.921Z,13.50
2023-03-01T01:26:42.140Z,13.77
2023-03-01T01:29:10.646Z,14.25
2023-03-01T01:31:40.432Z,14.95
2023-03-01T01:34:12.830Z,15.88
2023-03-01T01:36:40.749Z,16.07
2023-03-01T01:39:08.604Z,15.48
2023-03-01T01:41:36.589Z,14.50
2023-03-01T01:44:17.394Z,16.20
2023-03-01T01:46:53.889Z,17.23
2023-03-01T01:49:38.640Z,16.60
2023-03-01T01:52:13.408Z,16.35
2023-03-01T01:55:08.108Z,15.85
2023-03-01T01:57:44.377Z,16.20
2023-03-01T02:00:17.740Z,16.13
2023-03-01T02:05:30.760Z,15.52
2023-03-01T02:07:59.731Z,16.50
2023-03-01T02:10:28.920Z,17.77
2023-03-01T02:12:57.707Z,16.90
2023-03-01T02:15:27.742Z,16.40
2023-03-01T02:17:56.184Z,18.73
2023-03-01T02:20:36.213Z,16.35
2023-03-01T02:23:04.332Z,16.23
2023-03-01T02:25:57.870Z,16.48
2023-03-01T02:28:25.590Z,17.83
2023-03-01T02:31:13.313Z,16.83
2023-03-01T02:33:41.968Z,17.17
2023-03-01T02:36:14.598Z,16.08
2023-03-01T02:38:43.951Z,15.95
2023-03-01T02:41:16.169Z,16.42
2023-03-01T02:43:44.546Z,16.33
2023-03-01T02:46:19.694Z,16.98
2023-03-01T02:48:50.969Z,14.70
2023-03-01T02:51:33.958Z,14.18
2023-03-01T02:54:23.762Z,10.57
2023-03-01T02:56:52.129Z,15.40
2023-03-01T02:59:26.147Z,14.85
2023-03-01T03:01:54.001Z,15.63
2023-03-01T03:04:22.328Z,14.80
2023-03-01T03:06:52.230Z,15.95
2023-03-01T03:09:20.303Z,16.98
2023-03-01T03:11:48.589Z,15.93
2023-03-01T03:14:18.010Z,16.17
2023-03-01T03:16:51.964Z,16.45
2023-03-01T03:19:21.509Z,15.15
2023-03-01T03:21:50.970Z,15.20
2023-03-01T03:24:19.782Z,16.10
2023-03-01T03:26:47.730Z,15.20
2023-03-01T03:29:15.792Z,17.65
2023-03-01T03:31:43.720Z,15.38
2023-03-01T03:34:19.302Z,15.77
2023-03-01T03:36:47.097Z,16.75
2023-03-01T03:39:14.923Z,17.27
2023-03-01T03:41:42.704Z,16.02
2023-03-01T03:44:10.597Z,16.75
2023-03-01T03:46:38.706Z,16.73
2023-03-01T03:49:06.598Z,15.10
2023-03-01T03:51:34.437Z,18.02
2023-03-01T03:54:02.308Z,16.80
2023-03-01T03:56:30.659Z,17.02
2023-03-01T03:58:58.882Z,15.85
2023-03-01T04:01:26.690Z,15.95
2023-03-01T04:03:56.092Z,15.40
2023-03-01T04:06:23.911Z,16.35
2023-03-01T04:08:52.288Z,15.77
2023-03-01T04:11:29.364Z,15.52
2023-03-01T04:14:00.099Z,15.57
2023-03-01T04:16:28.225Z,15.55
2023-03-01T04:18:56.300Z,16.48
2023-03-01T04:21:24.148Z,17.13
2023-03-01T04:23:53.896Z,15.23
2023-03-01T04:26:24.628Z,15.68
2023-03-01T04:28:52.432Z,17.10
2023-03-01T04:31:22.810Z,15.80
2023-03-01T04:33:56.374Z,16.02
2023-03-01T04:36:26.895Z,15.50
2023-03-01T04:38:55.321Z,16.30
2023-03-01T04:41:25.495Z,16.00
2023-03-01T04:43:53.579Z,14.77
2023-03-01T04:46:22.768Z,14.88
2023-03-01T04:48:50.653Z,14.07
2023-03-01T04:51:19.642Z,14.50
2023-03-01T04:53:48.332Z,15.85
2023-03-01T04:56:17.046Z,14.90
2023-03-01T04:58:45.775Z,15.80
2023-03-01T05:01:20.953Z,15.48
2023-03-01T05:03:52.772Z,16.30
2023-03-01T05:06:21.604Z,15.13
2023-03-01T05:08:49.423Z,15.73
2023-03-01T05:11:17.352Z,15.38
2023-03-01T05:13:45.536Z,15.20
2023-03-01T05:16:13.660Z,15.32
2023-03-01T05:18:42.063Z,14.95
2023-03-01T05:21:13.517Z,15.13
2023-03-01T05:23:41.891Z,16.05
2023-03-01T05:26:25.835Z,15.68
2023-03-01T05:29:00.618Z,15.32
2023-03-01T05:31:29.194Z,17.25
2023-03-01T05:33:57.084Z,16.10
2023-03-01T05:36:24.987Z,14.50
2023-03-01T05:38:52.873Z,15.80
2023-03-01T05:41:21.128Z,16.95
2023-03-01T05:43:48.960Z,15.85
2023-03-01T05:46:16.903Z,15.68
2023-03-01T05:48:44.950Z,15.52
2023-03-01T05:51:13.292Z,15.55
2023-03-01T05:53:41.241Z,16.02
2023-03-01T05:56:09.342Z,17.55
2023-03-01T05:58:37.264Z,16.58
2023-03-01T06:01:05.311Z,17.00
2023-03-01T06:03:33.230Z,15.98
2023-03-01T06:06:01.238Z,17.27
2023-03-01T06:08:29.221Z,17.83
2023-03-01T06:10:57.060Z,17.90
2023-03-01T06:13:25.705Z,17.20
2023-03-01T06:15:53.745Z,17.23
2023-03-01T06:18:21.760Z,16.80
2023-03-01T06:20:57.032Z,18.05
2023-03-01T06:23:25.471Z,18.13
2023-03-01T06:25:54.025Z,16.23
2023-03-01T06:28:21.975Z,17.40
2023-03-01T06:30:51.097Z,16.33
2023-03-01T06:33:21.250Z,17.02
2023-03-01T06:35:49.147Z,16.90
2023-03-01T06:38:18.595Z,16.73
2023-03-01T06:40:52.778Z,16.75
2023-03-01T06:43:20.614Z,15.00
2023-03-01T06:45:48.528Z,15.13
2023-03-01T06:48:16.623Z,16.30
2023-03-01T06:50:44.623Z,16.63
2023-03-01T06:53:12.426Z,17.38
2023-03-01T06:55:40.193Z,17.25
2023-03-01T06:58:08.056Z,17.38
2023-03-01T07:00:35.961Z,17.25
2023-03-01T07:03:04.530Z,17.60
2023-03-01T07:05:34.669Z,18.10
2023-03-01T07:08:02.704Z,17.75
2023-03-01T07:10:30.653Z,17.42
2023-03-01T07:12:59.460Z,18.20
2023-03-01T07:15:28.527Z,18.13
2023-03-01T07:17:57.820Z,18.02
2023-03-01T07:20:26.812Z,18.85
2023-03-01T07:22:57.618Z,18.65
2023-03-01T07:25:26.143Z,19.92
2023-03-01T07:27:54.889Z,20.08
2023-03-01T07:30:23.670Z,19.40
2023-03-01T07:32:52.720Z,19.35
2023-03-01T07:35:22.566Z,19.50
2023-03-01T07:37:50.550Z,18.58
2023-03-01T07:40:18.817Z,19.50
2023-03-01T07:42:46.737Z,20.55
2023-03-01T07:45:14.968Z,18.63
2023-03-01T07:47:42.846Z,18.63
2023-03-01T07:50:11.441Z,19.00
2023-03-01T07:52:39.287Z,19.15
2023-03-01T07:55:07.673Z,18.40
2023-03-01T07:57:35.636Z,18.63
2023-03-01T08:00:04.956Z,18.60
2023-03-01T08:02:41.591Z,18.90
2023-03-01T08:05:11.305Z,19.45
2023-03-01T08:07:39.350Z,19.70
2023-03-01T08:10:07.903Z,19.65
2023-03-01T08:12:35.839Z,20.48
2023-03-01T08:15:04.161Z,20.92
2023-03-01T08:17:32.084Z,19.98
2023-03-01T08:19:59.934Z,20.65
2023-03-01T08:22:27.886Z,20.38
2023-03-01T08:24:56.931Z,21.85
2023-03-01T08:27:25.634Z,20.60
2023-03-01T08:29:53.793Z,21.48
2023-03-01T08:32:21.956Z,21.95
2023-03-01T08:34:49.907Z,20.38
2023-03-01T08:37:17.949Z,22.65
2023-03-01T08:39:45.937Z,22.58
2023-03-01T08:42:13.944Z,23.75
2023-03-01T08:44:41.934Z,22.45
2023-03-01T08:47:09.799Z,23.38
2023-03-01T08:49:37.697Z,22.33
2023-03-01T08:52:05.624Z,22.30
2023-03-01T08:54:33.638Z,22.48
2023-03-01T08:57:04.040Z,24.23
2023-03-01T08:59:37.059Z,23.50
2023-03-01T09:02:07.429Z,22.23
2023-03-01T09:04:35.397Z,22.35
2023-03-01T09:07:03.347Z,21.10
2023-03-01T09:09:31.287Z,21.42
2023-03-01T09:11:59.257Z,21.13
2023-03-01T09:14:27.546Z,18.17
2023-03-01T09:16:55.774Z,14.88
2023-03-01T09:19:26.292Z,13.85
2023-03-01T09:21:56.846Z,13.38
2023-03-01T09:24:26.210Z,14.63
2023-03-01T09:26:56.268Z,13.98
2023-03-01T09:29:24.943Z,14.15
2023-03-01T09:31:56.410Z,16.38
2023-03-01T09:34:25.048Z,17.90
2023-03-01T09:36:53.174Z,17.90
2023-03-01T09:39:21.628Z,16.58
2023-03-01T09:42:03.685Z,18.40
2023-03-01T09:44:56.199Z,19.08
2023-03-01T09:47:28.411Z,18.05
2023-03-01T09:50:15.872Z,17.55
2023-03-01T09:53:05.274Z,17.42
2023-03-01T09:55:43.928Z,18.35
2023-03-01T09:58:42.662Z,17.80
2023-03-01T10:01:36.006Z,18.20
2023-03-01T10:04:22.265Z,18.02
2023-03-01T10:07:04.482Z,18.80
2023-03-01T10:09:36.221Z,18.98
2023-03-01T10:12:10.564Z,18.02
2023-03-01T10:14:56.806Z,17.77
2023-03-01T10:17:52.943Z,18.45
2023-03-01T10:20:20.797Z,19.40
2023-03-01T10:22:53.602Z,19.80
2023-03-01T10:25:36.072Z,19.58
2023-03-01T10:28:19.753Z,18.02
2023-03-01T10:30:47.846Z,18.20
2023-03-01T10:33:19.484Z,19.98
2023-03-01T10:35:48.541Z,19.25
2023-03-01T10:38:17.631Z,19.50
2023-03-01T10:40:55.974Z,19.73
2023-03-01T10:43:26.408Z,19.45
2023-03-01T10:45:54.520Z,19.33
2023-03-01T10:48:27.515Z,19.67
2023-03-01T10:51:01.324Z,20.15
2023-03-01T10:53:34.645Z,19.45
2023-03-01T10:56:08.811Z,20.63
2023-03-01T10:58:42.412Z,20.60
2023-03-01T11:01:19.284Z,20.98
2023-03-01T11:04:07.409Z,20.50
2023-03-01T11:06:37.964Z,20.80
2023-03-01T11:09:20.694Z,20.80
2023-03-01T11:11:55.421Z,21.40
2023-03-01T11:14:27.492Z,20.15
2023-03-01T11:17:28.123Z,22.03
2023-03-01T11:20:17.608Z,21.33
2023-03-01T11:22:55.972Z,20.17
2023-03-01T11:25:39.245Z,19.75
2023-03-01T11:28:13.641Z,19.95
2023-03-01T11:31:08.169Z,20.10
2023-03-01T11:33:58.600Z,20.75
2023-03-01T11:36:47.992Z,21.92
2023-03-01T11:39:41.090Z,21.33
2023-03-01T11:42:19.634Z,20.90
2023-03-01T11:44:56.357Z,20.95
2023-03-01T11:47:33.814Z,21.75
2023-03-01T11:50:35.928Z,20.00
2023-03-01T11:53:14.854Z,20.02
2023-03-01T11:56:15.623Z,19.95
2023-03-01T11:59:01.896Z,19.00
2023-03-01T12:01:48.288Z,21.27
2023-03-01T12:04:38.634Z,17.45
2023-03-01T13:01:32.337Z,5.70
2023-03-01T13:04:21.382Z,5.18
2023-03-01T13:07:04.172Z,6.15
2023-03-01T13:09:46.958Z,5.18
2023-03-01T13:12:52.555Z,5.55
2023-03-01T13:15:23.568Z,6.03
2023-03-01T13:17:54.002Z,6.05
2023-03-01T13:20:46.479Z,6.10
2023-03-01T13:23:23.180Z,5.35
2023-03-01T13:26:16.117Z,5.25
2023-03-01T13:28:47.263Z,5.20
2023-03-01T13:31:21.399Z,4.90
2023-03-01T13:33:53.131Z,4.95
2023-03-01T13:36:30.844Z,4.50
2023-03-01T13:39:02.371Z,4.50
2023-03-01T13:41:45.426Z,4.97
2023-03-01T13:44:33.135Z,5.47
2023-03-01T13:47:09.635Z,5.00
2023-03-01T13:49:46.977Z,5.10
2023-03-01T13:52:37.048Z,5.07
2023-03-01T13:55:39.150Z,5.28
2023-03-01T13:58:23.109Z,6.10
2023-03-01T14:01:30.967Z,6.45
2023-03-01T14:04:00.461Z,5.00
2023-03-01T14:06:32.229Z,5.57
2023-03-01T14:09:25.109Z,5.57
2023-03-01T14:12:40.441Z,5.63
2023-03-01T14:15:37.161Z,5.55
2023-03-01T14:18:10.961Z,5.28
2023-03-01T14:20:42.485Z,5.40
2023-03-01T14:23:14.673Z,5.25
2023-03-01T14:25:58.212Z,6.03
2023-03-01T14:31:00.084Z,5.80
2023-03-01T14:33:28.175Z,6.65
2023-03-01T14:36:08.447Z,5.68
2023-03-01T14:38:37.751Z,5.18
2023-03-01T14:41:11.541Z,5.65
2023-03-01T14:43:43.430Z,6.43
2023-03-01T14:46:23.618Z,6.45
2023-03-01T14:48:59.629Z,4.82
2023-03-01T14:51:27.818Z,5.50
2023-03-01T14:53:56.608Z,5.40
2023-03-01T14:56:24.499Z,4.97
2023-03-01T14:58:55.222Z,5.43
2023-03-01T15:01:23.552Z,5.05
2023-03-01T15:03:52.588Z,6.00
2023-03-01T15:06:23.498Z,7.50
2023-03-01T15:08:55.018Z,5.32
2023-03-01T15:11:32.729Z,4.95
2023-03-01T15:14:01.062Z,4.85
2023-03-01T15:16:34.974Z,5.63
2023-03-01T15:19:05.924Z,7.95
2023-03-01T15:21:38.989Z,6.50
2023-03-01T15:24:13.199Z,5.55
2023-03-01T15:26:44.013Z,6.68
2023-03-01T15:29:20.427Z,5.07
2023-03-01T15:32:06.665Z,4.95
2023-03-01T15:34:38.794Z,5.13
2023-03-01T15:37:28.579Z,7.00
2023-03-01T15:39:58.138Z,6.88
2023-03-01T15:42:29.138Z,6.35
2023-03-01T15:45:23.673Z,6.40
2023-03-01T15:47:54.227Z,6.10
2023-03-01T15:50:24.772Z,7.00
2023-03-01T15:52:53.233Z,7.03
2023-03-01T15:55:25.754Z,6.97
2023-03-01T15:58:04.987Z,6.57
2023-03-01T16:00:33.065Z,6.63
2023-03-01T16:03:01.130Z,6.68
2023-03-01T16:05:32.365Z,9.07
2023-03-01T16:08:00.467Z,6.97
2023-03-01T16:10:29.381Z,7.00
2023-03-01T16:12:57.372Z,6.82
2023-03-01T16:15:30.721Z,7.78
2023-03-01T16:18:00.487Z,7.25
2023-03-01T16:20:32.884Z,7.57
2023-03-01T16:23:04.080Z,6.53
2023-03-01T16:25:33.526Z,7.07
2023-03-01T16:28:05.498Z,7.43
2023-03-01T16:30:37.090Z,7.63
2023-03-01T16:33:24.225Z,6.55
2023-03-01T16:35:55.209Z,7.60
2023-03-01T16:38:23.251Z,7.13
2023-03-01T16:40:53.030Z,7.57
2023-03-01T16:43:21.219Z,7.13
2023-03-01T16:45:49.279Z,6.95
2023-03-01T16:48:17.251Z,7.15
2023-03-01T16:50:45.174Z,7.47
2023-03-01T16:53:13.310Z,7.72
2023-03-01T16:55:46.586Z,7.97
2023-03-01T17:00:44.574Z,7.15
2023-03-01T17:03:14.996Z,7.07
2023-03-01T17:05:43.151Z,7.22
2023-03-01T17:08:11.173Z,7.60
2023-03-01T17:10:39.233Z,7.07
2023-03-01T17:13:07.215Z,7.72
2023-03-01T17:15:40.378Z,7.30
2023-03-01T17:18:10.142Z,9.02
2023-03-01T17:20:38.093Z,10.95
2023-03-01T17:23:06.308Z,9.30
2023-03-01T17:25:34.428Z,8.10
2023-03-01T17:28:02.415Z,8.32
2023-03-01T17:30:30.768Z,7.40
2023-03-01T17:32:58.955Z,8.18
2023-03-01T17:35:27.063Z,7.72
2023-03-01T17:37:55.177Z,8.10
2023-03-01T17:40:23.327Z,8.40
2023-03-01T17:42:51.352Z,8.50
2023-03-01T17:45:19.316Z,8.65
2023-03-01T17:47:47.329Z,8.77
2023-03-01T17:50:15.531Z,7.78
2023-03-01T17:52:43.636Z,8.48
2023-03-01T17:55:12.064Z,8.60
2023-03-01T17:57:42.227Z,7.80
2023-03-01T18:00:13.823Z,7.93
2023-03-01T18:02:43.307Z,7.10
2023-03-01T18:05:12.099Z,7.15
2023-03-01T18:07:40.097Z,8.40
2023-03-01T18:10:08.589Z,6.68
2023-03-01T18:12:36.788Z,7.07
2023-03-01T18:15:06.896Z,7.78
2023-03-01T18:17:34.967Z,7.95
2023-03-01T18:20:04.037Z,7.88
2023-03-01T18:22:33.355Z,8.02
2023-03-01T18:25:01.580Z,8.07
2023-03-01T18:27:29.608Z,7.57
2023-03-01T18:29:58.097Z,9.13
2023-03-01T18:32:26.860Z,11.10
2023-03-01T18:34:54.968Z,10.38
2023-03-01T18:37:23.058Z,8.63
2023-03-01T18:39:52.905Z,6.90
2023-03-01T18:42:22.053Z,7.18
2023-03-01T18:44:50.227Z,6.60
2023-03-01T18:47:18.217Z,7.60
2023-03-01T18:49:46.298Z,7.63
2023-03-01T18:52:14.442Z,6.82
2023-03-01T18:54:42.689Z,6.03
2023-03-01T18:57:10.821Z,6.65
2023-03-01T18:59:38.931Z,6.35
2023-03-01T19:02:07.140Z,7.03
2023-03-01T19:04:35.350Z,11.23
2023-03-01T19:07:03.504Z,7.10
2023-03-01T19:09:31.560Z,8.20
2023-03-01T19:12:02.316Z,7.57
2023-03-01T19:14:30.406Z,6.22
2023-03-01T19:16:58.487Z,10.63
2023-03-01T19:19:26.588Z,7.57
2023-03-01T19:22:05.158Z,6.35
2023-03-01T19:24:35.118Z,8.02
2023-03-01T19:27:03.152Z,11.38
2023-03-01T19:29:31.077Z,7.20
2023-03-01T19:31:59.101Z,8.07
2023-03-01T19:34:27.220Z,6.85
2023-03-01T19:36:55.113Z,7.13
2023-03-01T19:39:23.155Z,6.10
2023-03-01T19:41:51.091Z,5.63
2023-03-01T19:44:24.939Z,6.53
2023-03-01T19:46:53.951Z,4.88
2023-03-01T19:49:22.029Z,5.32
2023-03-01T19:51:50.041Z,4.38
2023-03-01T19:54:21.933Z,5.00
2023-03-01T19:56:51.826Z,4.80
2023-03-01T19:59:24.756Z,4.35
2023-03-01T20:01:53.085Z,4.07
2023-03-01T20:04:21.355Z,3.92
2023-03-01T20:06:50.011Z,4.22
2023-03-01T20:09:21.839Z,3.72
2023-03-01T20:11:51.757Z,3.50
2023-03-01T20:14:23.245Z,4.00
2023-03-01T20:16:52.933Z,3.95
2023-03-01T20:19:22.201Z,3.25
2023-03-01T20:21:51.372Z,4.22
2023-03-01T20:24:20.628Z,3.90
2023-03-01T20:26:49.639Z,3.75
2023-03-01T20:29:18.793Z,3.45
2023-03-01T20:31:48.130Z,4.22
2023-03-01T20:34:17.106Z,3.63
2023-03-01T20:36:46.034Z,3.00
2023-03-01T20:39:15.442Z,3.88
2023-03-01T20:41:44.914Z,4.10
2023-03-01T20:44:14.414Z,3.42
2023-03-01T20:46:44.120Z,3.42
2023-03-01T20:49:13.785Z,3.15
2023-03-01T20:51:44.820Z,3.30
2023-03-01T20:54:14.478Z,4.25
2023-03-01T20:56:43.395Z,3.38
2023-03-01T20:59:12.909Z,3.03
2023-03-01T21:01:41.132Z,2.40
2023-03-01T21:04:10.698Z,2.92
2023-03-01T21:06:39.527Z,2.58
2023-03-01T21:09:08.084Z,3.28
2023-03-01T21:11:36.984Z,2.40
2023-03-01T21:14:07.829Z,2.05
2023-03-01T21:16:36.455Z,2.00
2023-03-01T21:19:04.925Z,2.40
2023-03-01T21:21:32.895Z,2.65
2023-03-01T21:24:01.115Z,2.45
2023-03-01T21:26:29.068Z,2.70
2023-03-01T21:29:00.469Z,2.50
2023-03-01T21:31:34.031Z,2.80
2023-03-01T21:34:06.984Z,2.58
2023-03-01T21:36:35.458Z,2.60
2023-03-01T21:39:06.414Z,2.38
2023-03-01T21:41:37.054Z,2.95
2023-03-01T21:44:07.640Z,2.90
2023-03-01T21:46:38.125Z,3.22
2023-03-01T21:51:41.242Z,3.22
2023-03-01T21:54:12.539Z,3.40
2023-03-01T21:56:41.408Z,3.35
2023-03-01T21:59:15.930Z,3.03
2023-03-01T22:01:43.885Z,3.35
2023-03-01T22:04:13.332Z,3.00
2023-03-01T22:06:44.092Z,2.95
2023-03-01T22:09:18.147Z,3.22
2023-03-01T22:11:51.889Z,3.42
2023-03-01T22:14:20.873Z,2.95
2023-03-01T22:16:51.751Z,2.58
2023-03-01T22:19:20.310Z,3.20
2023-03-01T22:21:51.985Z,3.15
2023-03-01T22:24:23.202Z,4.05
2023-03-01T22:26:52.394Z,3.20
2023-03-01T22:29:23.313Z,2.65
2023-03-01T22:31:52.528Z,3.40
2023-03-01T22:34:21.597Z,2.65
2023-03-01T22:36:49.830Z,2.70
2023-03-01T22:39:20.261Z,3.10
2023-03-01T22:41:49.218Z,2.88
2023-03-01T22:44:20.317Z,2.50
2023-03-01T22:46:48.623Z,2.45
2023-03-01T22:49:17.829Z,2.42
2023-03-01T22:51:47.775Z,1.83
2023-03-01T22:54:17.017Z,2.40
2023-03-01T22:56:45.482Z,2.33
2023-03-01T22:59:15.811Z,2.17
2023-03-01T23:01:46.571Z,2.70
2023-03-01T23:04:16.910Z,2.85
2023-03-01T23:06:54.147Z,2.70
2023-03-01T23:09:27.064Z,2.78
2023-03-01T23:11:55.832Z,2.53
2023-03-01T23:14:25.235Z,2.30
2023-03-01T23:16:54.286Z,2.83
2023-03-01T23:19:22.643Z,3.03
2023-03-01T23:21:50.707Z,3.35
2023-03-01T23:24:20.449Z,2.83
2023-03-01T23:26:55.623Z,2.50
2023-03-01T23:29:23.616Z,2.60
2023-03-01T23:31:51.655Z,2.60
2023-03-01T23:34:19.686Z,2.75
2023-03-01T23:36:47.677Z,2.78
2023-03-01T23:39:15.611Z,2.25
2023-03-01T23:41:43.640Z,2.53
2023-03-01T23:44:17.027Z,2.17
2023-03-01T23:49:18.332Z,1.58
2023-03-01T23:54:19.777Z,1.00
2023-03-01T23:56:48.280Z,1.27
2023-03-01T23:59:18.613Z,1.23
